Forside
METAR-TAF:

METAR-TAF

Lufthavne :

Bornholms Lufthavn

Rønne, Danmark

Breddekreds: 55-04N, længdekreds: 014-45E, højde: 16 m

Aktuelle vejr

Denne rapport blev lavet for 16 minutter siden, kl. 03:50 UTC
Vind 14 kt fra vestsydvest
Temperatur 7°C
Fugtighed 93%
Tryk 1013 hPa
Sigt: 5000 m

METAR: EKRN 180350Z AUTO 25014KT 5000 // FEW005/// OVC022/// 07/06 Q1013

Tid: 05:06 (04:06 UTC)

Vejrudsigter

Denne rapport blev lavet for 10 timer og 40 minutter siden, kl. 17:26 UTC
Foreløbig gælder fra 17 på 18 UTC til 17 på 23 UTC
Vind 14 kt fra sydsydøst
Sigt 10 km eller mere
Nogle få skyer i en højde af 3000 ft

TAF: EKRN 171726Z 1718/1723 16014KT 9999 FEW030

Vejrobservationer og prognoser fra mere end 4000 lufthavne (METAR og TAF).

De gule og røde prikker repræsenterer de meteorologiske stationer.

Flyt musen over at se navnet på stationen.

Så klik over at se vejr observationer og prognoser.

At skifte det kort: Klik på de grønne knapper med et sort kors for at zoome ind; på den grønne knap med en bindestreg for at zoome ud; eller på de grønne pile for tilstødende kort.


METAR-TAF: